Time;durP1;ratioP1;P1;durP2;ratioP2;P2;SDS_P1;SDS_P2;PMS_P1;PMS_P2;Temp;Humidity;BMP_temperature;BMP_pressure;BME280_temperature;BME280_humidity;BME280_pressure;Samples;Min_cycle;Max_cycle;Signal;HPM_P1;HPM_P2
2023/09/30 00:01:44;;;;;;;2.40;0.60;;;;;;;17.16;91.53;101534.94;5055897;28;20442;-70
2023/09/30 00:04:10;;;;;;;2.20;0.55;;;;;;;16.99;92.57;101532.19;5019075;28;1135860;-70
2023/09/30 00:06:37;;;;;;;2.57;0.73;;;;;;;17.01;93.19;101535.44;5063943;28;20615;-70
2023/09/30 00:09:05;;;;;;;3.77;1.00;;;;;;;16.96;93.73;101543.81;5063038;28;20438;-70
2023/09/30 00:11:33;;;;;;;3.37;1.13;;;;;;;16.96;94.66;101557.50;5062868;28;20529;-70
2023/09/30 00:13:59;;;;;;;3.87;0.60;;;;;;;16.83;94.94;101568.25;5064740;28;20809;-71
2023/09/30 00:16:26;;;;;;;2.00;0.50;;;;;;;16.73;95.69;101568.53;5061664;28;20482;-70
2023/09/30 00:18:53;;;;;;;4.57;0.70;;;;;;;16.68;94.61;101570.59;5064646;28;20521;-70
2023/09/30 00:21:20;;;;;;;2.70;0.60;;;;;;;16.63;94.38;101577.00;5064403;28;20442;-70
2023/09/30 00:23:47;;;;;;;5.70;0.97;;;;;;;16.59;94.16;101576.03;5064298;28;20489;-71
2023/09/30 00:26:14;;;;;;;3.13;0.70;;;;;;;16.54;94.33;101584.38;5064623;28;20493;-71
2023/09/30 00:28:42;;;;;;;2.70;1.00;;;;;;;16.51;93.82;101582.28;5064865;28;20930;-70
2023/09/30 00:31:09;;;;;;;3.37;0.80;;;;;;;16.40;94.45;101582.56;5064760;28;20478;-71
2023/09/30 00:33:36;;;;;;;3.33;0.67;;;;;;;16.34;94.28;101583.84;5064485;28;20510;-70
2023/09/30 00:36:07;;;;;;;2.30;0.70;;;;;;;16.32;94.60;101582.53;5062418;28;20461;-71
2023/09/30 00:38:34;;;;;;;3.73;0.97;;;;;;;16.31;93.81;101589.13;5063597;28;20422;-71
2023/09/30 00:41:01;;;;;;;2.60;0.73;;;;;;;16.20;94.37;101594.03;5063994;28;20472;-70
2023/09/30 00:43:27;;;;;;;2.20;0.60;;;;;;;16.11;94.26;101598.66;5046514;28;20473;-71
2023/09/30 00:46:07;;;;;;;2.63;0.83;;;;;;;16.03;94.57;101604.91;5063728;28;20500;-71
2023/09/30 00:48:34;;;;;;;2.40;0.60;;;;;;;15.97;95.01;101600.69;5062952;28;20427;-70
2023/09/30 00:51:01;;;;;;;2.17;0.60;;;;;;;15.95;94.92;101597.47;5062308;28;20482;-70
2023/09/30 00:53:29;;;;;;;2.13;0.67;;;;;;;15.96;94.31;101605.34;5063010;28;20470;-71
2023/09/30 00:55:57;;;;;;;2.50;0.63;;;;;;;15.83;95.17;101607.03;5064123;28;20462;-71
2023/09/30 00:58:28;;;;;;;2.70;0.83;;;;;;;15.76;95.25;101603.09;5063933;28;20506;-71
2023/09/30 01:00:57;;;;;;;2.30;0.60;;;;;;;15.69;95.69;101595.34;5064362;28;20789;-71
2023/09/30 01:03:24;;;;;;;2.50;0.60;;;;;;;15.55;95.18;101600.06;5064310;28;20519;-71
2023/09/30 01:05:51;;;;;;;2.30;0.67;;;;;;;15.48;95.97;101607.84;5063258;28;20636;-71
2023/09/30 01:08:19;;;;;;;3.90;0.70;;;;;;;15.44;96.60;101609.59;5063475;28;20529;-71
2023/09/30 01:10:46;;;;;;;2.10;0.60;;;;;;;15.36;97.08;101614.69;5063341;28;20509;-71
2023/09/30 01:13:13;;;;;;;3.60;1.10;;;;;;;15.41;97.16;101602.84;5063425;28;20860;-71
2023/09/30 01:15:40;;;;;;;2.40;0.80;;;;;;;15.35;97.96;101618.50;5063077;28;20434;-71
2023/09/30 01:18:08;;;;;;;2.60;0.70;;;;;;;15.39;97.88;101615.97;5064553;28;20447;-71
2023/09/30 01:20:34;;;;;;;1.90;0.40;;;;;;;15.41;97.91;101629.34;5063928;28;20478;-71
2023/09/30 01:23:03;;;;;;;4.63;0.70;;;;;;;15.37;97.44;101624.47;5064250;28;20471;-71
2023/09/30 01:25:30;;;;;;;2.57;0.60;;;;;;;15.32;97.25;101630.06;5064039;28;20927;-71
2023/09/30 01:27:57;;;;;;;1.90;0.43;;;;;;;15.25;98.14;101646.03;5062995;28;20490;-71
2023/09/30 01:30:23;;;;;;;4.07;0.60;;;;;;;15.19;98.65;101641.00;5063252;28;20438;-71
2023/09/30 01:32:50;;;;;;;3.00;0.90;;;;;;;15.15;99.03;101646.25;5062856;28;20446;-71
2023/09/30 01:35:17;;;;;;;2.70;0.77;;;;;;;15.12;99.45;101652.31;5062991;28;20470;-71
2023/09/30 01:37:43;;;;;;;2.30;0.83;;;;;;;15.11;100.00;101656.97;5062213;28;20534;-71
2023/09/30 01:40:12;;;;;;;2.60;0.90;;;;;;;15.07;100.00;101653.25;5062750;28;20504;-71
2023/09/30 01:42:38;;;;;;;3.53;0.93;;;;;;;15.05;99.72;101660.09;5062454;28;20438;-71
2023/09/30 01:45:06;;;;;;;3.40;0.70;;;;;;;15.05;100.00;101666.41;5063262;28;20503;-71
2023/09/30 01:47:33;;;;;;;2.10;0.50;;;;;;;15.04;100.00;101670.22;5056647;28;20981;-71
2023/09/30 01:50:00;;;;;;;2.20;0.50;;;;;;;15.03;100.00;101665.06;5055738;28;20457;-71
2023/09/30 01:52:27;;;;;;;3.37;0.90;;;;;;;15.00;100.00;101669.19;5055249;28;20536;-71
2023/09/30 01:54:54;;;;;;;2.10;0.50;;;;;;;14.99;100.00;101675.78;5055249;28;20446;-71
2023/09/30 01:57:22;;;;;;;3.60;0.60;;;;;;;14.96;100.00;101675.56;5054932;28;20549;-70
2023/09/30 01:59:49;;;;;;;2.57;0.60;;;;;;;14.92;99.61;101680.84;5055605;28;20521;-70
2023/09/30 02:02:16;;;;;;;7.20;0.80;;;;;;;14.86;100.00;101676.59;5055216;28;20438;-71
2023/09/30 02:04:43;;;;;;;2.90;0.90;;;;;;;14.79;100.00;101679.72;5055131;28;20537;-71
2023/09/30 02:07:10;;;;;;;4.07;0.80;;;;;;;14.75;100.00;101686.09;5054878;28;20474;-71
2023/09/30 02:09:37;;;;;;;2.57;0.73;;;;;;;14.70;100.00;101694.34;5055034;28;20521;-71
2023/09/30 02:12:04;;;;;;;3.07;1.13;;;;;;;14.64;100.00;101691.72;5054903;28;20852;-71
2023/09/30 02:14:32;;;;;;;2.40;0.70;;;;;;;14.63;100.00;101697.47;5055403;28;20476;-71
2023/09/30 02:16:59;;;;;;;2.20;0.77;;;;;;;14.63;100.00;101694.75;5054772;28;20488;-71
2023/09/30 02:19:27;;;;;;;4.23;0.70;;;;;;;14.60;100.00;101689.91;5054804;28;20462;-73
2023/09/30 02:21:54;;;;;;;3.93;1.13;;;;;;;14.59;100.00;101688.28;5053744;28;20947;-68
2023/09/30 02:24:23;;;;;;;2.27;0.60;;;;;;;14.56;100.00;101681.50;5055098;28;20438;-71
2023/09/30 02:26:49;;;;;;;5.13;1.20;;;;;;;14.55;100.00;101690.00;5054561;28;20554;-70
2023/09/30 02:29:16;;;;;;;3.13;0.80;;;;;;;14.51;100.00;101687.06;5054916;28;20447;-70
2023/09/30 02:31:44;;;;;;;3.27;0.90;;;;;;;14.52;100.00;101698.75;5054574;28;20508;-71
2023/09/30 02:34:10;;;;;;;2.93;0.90;;;;;;;14.50;100.00;101701.00;5054600;28;20495;-71
2023/09/30 02:36:39;;;;;;;3.90;1.30;;;;;;;14.53;100.00;101703.13;5054226;28;20550;-71
2023/09/30 02:39:08;;;;;;;5.40;1.73;;;;;;;14.53;100.00;101711.31;5054458;28;20950;-71
2023/09/30 02:41:35;;;;;;;2.73;0.77;;;;;;;14.46;100.00;101711.66;5054457;28;20438;-71
2023/09/30 02:44:01;;;;;;;2.50;0.77;;;;;;;14.41;100.00;101724.56;5054614;28;20522;-71
2023/09/30 02:46:28;;;;;;;3.20;0.97;;;;;;;14.37;100.00;101727.09;5054286;28;20462;-70
2023/09/30 02:48:55;;;;;;;3.10;0.83;;;;;;;14.39;100.00;101724.88;5054604;28;20478;-70
2023/09/30 02:51:22;;;;;;;2.73;0.83;;;;;;;14.34;100.00;101722.22;5054070;28;21008;-70
2023/09/30 02:53:48;;;;;;;2.33;0.70;;;;;;;14.35;100.00;101734.75;5054686;28;20521;-70
2023/09/30 02:56:15;;;;;;;3.60;1.00;;;;;;;14.31;100.00;101731.81;5063244;28;20530;-70
2023/09/30 02:58:41;;;;;;;3.10;0.83;;;;;;;14.27;100.00;101730.78;5068704;28;20470;-71
2023/09/30 03:01:09;;;;;;;2.87;0.97;;;;;;;14.27;100.00;101725.34;5066370;28;20446;-71
2023/09/30 03:03:36;;;;;;;2.00;0.40;;;;;;;14.25;100.00;101732.19;5053655;28;20468;-70
2023/09/30 03:06:05;;;;;;;2.93;0.93;;;;;;;14.22;100.00;101733.59;5053901;28;20450;-71
2023/09/30 03:08:32;;;;;;;3.40;0.90;;;;;;;14.24;100.00;101736.81;5053849;28;20484;-70
2023/09/30 03:10:59;;;;;;;2.20;0.67;;;;;;;14.22;100.00;101739.06;5053489;28;21013;-70
2023/09/30 03:13:26;;;;;;;4.20;0.90;;;;;;;14.22;100.00;101730.06;5053797;28;20448;-70
2023/09/30 03:15:53;;;;;;;2.70;0.80;;;;;;;14.17;100.00;101730.97;5053740;28;20470;-71
2023/09/30 03:18:23;;;;;;;4.70;1.23;;;;;;;14.09;100.00;101743.34;5053762;28;20529;-71
2023/09/30 03:20:50;;;;;;;2.27;0.70;;;;;;;14.10;100.00;101746.88;5053684;28;20803;-70
2023/09/30 03:23:19;;;;;;;2.70;0.93;;;;;;;14.10;100.00;101744.13;5053642;28;20434;-70
2023/09/30 03:25:46;;;;;;;8.10;0.90;;;;;;;14.11;100.00;101754.72;5053798;28;20816;-71
2023/09/30 03:28:14;;;;;;;3.40;0.90;;;;;;;14.08;100.00;101749.91;5053597;28;20520;-71
2023/09/30 03:30:41;;;;;;;2.70;0.87;;;;;;;14.06;100.00;101756.75;5053603;28;20442;-69
2023/09/30 03:33:08;;;;;;;2.73;0.70;;;;;;;14.04;100.00;101751.59;5053029;28;20500;-70
2023/09/30 03:35:36;;;;;;;4.30;1.20;;;;;;;14.02;100.00;101750.25;5053437;28;20484;-70
2023/09/30 03:38:04;;;;;;;2.63;0.87;;;;;;;14.01;100.00;101743.19;5053795;28;20442;-69
2023/09/30 03:40:33;;;;;;;2.63;0.70;;;;;;;13.99;100.00;101759.00;5053815;28;20491;-69
2023/09/30 03:43:00;;;;;;;8.27;1.33;;;;;;;14.00;100.00;101752.47;5053340;28;20450;-70
2023/09/30 03:45:27;;;;;;;3.13;1.07;;;;;;;13.96;100.00;101765.06;5053828;28;20448;-70
2023/09/30 03:47:53;;;;;;;5.20;2.00;;;;;;;13.94;100.00;101767.25;5053259;28;20473;-69
2023/09/30 03:50:23;;;;;;;3.37;0.93;;;;;;;13.87;100.00;101763.00;5053354;28;20442;-69
2023/09/30 03:52:50;;;;;;;2.73;0.93;;;;;;;13.86;100.00;101755.13;5053253;28;20551;-69
2023/09/30 03:55:18;;;;;;;2.67;0.60;;;;;;;13.81;100.00;101757.91;5052987;28;20533;-69
2023/09/30 03:57:47;;;;;;;3.73;0.80;;;;;;;13.83;100.00;101763.88;5053283;28;21027;-69
2023/09/30 04:00:18;;;;;;;4.03;0.90;;;;;;;13.80;100.00;101759.00;5053181;28;20529;-69
2023/09/30 04:02:48;;;;;;;3.10;0.83;;;;;;;13.77;100.00;101757.69;5052950;28;20962;-69
2023/09/30 04:05:16;;;;;;;3.03;1.03;;;;;;;13.77;100.00;101765.88;5052882;28;20466;-69
2023/09/30 04:07:43;;;;;;;4.53;1.57;;;;;;;13.76;100.00;101768.88;5053030;28;20462;-69
2023/09/30 04:10:11;;;;;;;2.90;0.90;;;;;;;13.73;100.00;101778.44;5053187;28;20457;-69
2023/09/30 04:12:37;;;;;;;4.20;1.40;;;;;;;13.71;100.00;101785.28;5053078;28;20820;-69
2023/09/30 04:15:07;;;;;;;2.83;0.80;;;;;;;13.66;100.00;101791.59;5053107;28;20430;-69
2023/09/30 04:17:33;;;;;;;3.70;1.13;;;;;;;13.68;100.00;101789.41;5053050;28;20462;-69
2023/09/30 04:20:00;;;;;;;2.30;0.80;;;;;;;13.70;100.00;101786.38;5053401;28;20534;-69
2023/09/30 04:22:29;;;;;;;2.83;0.87;;;;;;;13.70;100.00;101792.66;5053062;28;20521;-69
2023/09/30 04:24:56;;;;;;;3.23;0.93;;;;;;;13.69;100.00;101785.59;5053077;28;20442;-70
2023/09/30 04:27:22;;;;;;;2.80;1.20;;;;;;;13.62;100.00;101790.56;5053064;28;20512;-69
2023/09/30 04:29:50;;;;;;;2.93;0.90;;;;;;;13.62;100.00;101787.84;5053285;28;20470;-69
2023/09/30 04:32:19;;;;;;;4.77;1.27;;;;;;;13.63;100.00;101792.19;5052669;28;20981;-69
2023/09/30 04:34:46;;;;;;;2.80;0.80;;;;;;;13.61;100.00;101791.66;5053105;28;20438;-69
2023/09/30 04:37:14;;;;;;;2.97;0.83;;;;;;;13.63;100.00;101794.91;5052918;28;20468;-69
2023/09/30 04:39:41;;;;;;;2.30;0.70;;;;;;;13.62;100.00;101794.09;5053147;28;20445;-69
2023/09/30 04:42:10;;;;;;;4.53;1.37;;;;;;;13.60;100.00;101788.16;5052655;28;20438;-69
2023/09/30 04:44:37;;;;;;;3.87;1.10;;;;;;;13.57;100.00;101777.03;5054785;28;20500;-69
2023/09/30 04:47:04;;;;;;;3.40;1.67;;;;;;;13.56;100.00;101775.41;5056154;28;21000;-69
2023/09/30 04:49:32;;;;;;;2.60;0.80;;;;;;;13.59;100.00;101777.53;5056583;28;20938;-70
2023/09/30 04:51:59;;;;;;;5.13;0.97;;;;;;;13.63;100.00;101789.47;5056682;28;20535;-69
2023/09/30 04:54:25;;;;;;;2.40;0.77;;;;;;;13.57;100.00;101794.16;5056718;28;20492;-69
2023/09/30 04:56:52;;;;;;;4.30;0.97;;;;;;;13.57;100.00;101798.81;5056287;28;20913;-69
2023/09/30 04:59:18;;;;;;;2.73;0.80;;;;;;;13.56;100.00;101797.19;5056410;28;20476;-69
2023/09/30 05:01:45;;;;;;;2.30;0.70;;;;;;;13.54;100.00;101802.09;5056300;28;20516;-69
2023/09/30 05:04:12;;;;;;;2.60;0.67;;;;;;;13.52;100.00;101807.03;5056060;28;20869;-69
2023/09/30 05:06:41;;;;;;;2.83;1.07;;;;;;;13.52;100.00;101809.75;5056329;28;20520;-69
2023/09/30 05:09:08;;;;;;;3.33;1.07;;;;;;;13.51;100.00;101816.31;5056049;28;20540;-69
2023/09/30 05:11:35;;;;;;;2.93;1.10;;;;;;;13.49;100.00;101804.88;5055801;28;20442;-69
2023/09/30 05:14:02;;;;;;;2.30;0.60;;;;;;;13.54;100.00;101804.81;5056338;28;20450;-69
2023/09/30 05:16:31;;;;;;;2.80;0.93;;;;;;;13.54;100.00;101810.25;5055921;28;20466;-69
2023/09/30 05:18:58;;;;;;;2.57;0.73;;;;;;;13.50;100.00;101799.16;5056288;28;20438;-68
2023/09/30 05:21:26;;;;;;;3.30;1.00;;;;;;;13.51;100.00;101810.88;5055947;28;20538;-67
2023/09/30 05:23:54;;;;;;;3.17;1.10;;;;;;;13.51;100.00;101827.19;5056297;28;20438;-69
2023/09/30 05:26:21;;;;;;;4.40;1.17;;;;;;;13.51;100.00;101821.75;5055442;28;20458;-69
2023/09/30 05:28:47;;;;;;;2.90;0.93;;;;;;;13.50;100.00;101822.81;5055704;28;20442;-69
2023/09/30 05:31:14;;;;;;;7.00;1.30;;;;;;;13.51;100.00;101832.63;5055747;28;20438;-69
2023/09/30 05:33:40;;;;;;;2.50;0.70;;;;;;;13.46;100.00;101833.50;5055811;28;20565;-69
2023/09/30 05:36:08;;;;;;;2.70;0.90;;;;;;;13.51;100.00;101843.53;5055938;28;20544;-69
2023/09/30 05:38:34;;;;;;;7.30;1.50;;;;;;;13.49;100.00;101838.34;5055745;28;20442;-69
2023/09/30 05:41:02;;;;;;;3.30;1.20;;;;;;;13.51;100.00;101843.53;5055616;28;20926;-68
2023/09/30 05:43:30;;;;;;;3.07;1.00;;;;;;;13.51;100.00;101843.53;5055179;28;20926;-69
2023/09/30 05:45:57;;;;;;;7.70;1.33;;;;;;;13.50;100.00;101842.72;5055371;28;20465;-69
2023/09/30 05:48:25;;;;;;;2.30;0.70;;;;;;;13.59;100.00;101856.47;5055094;28;20808;-67
2023/09/30 05:50:51;;;;;;;4.60;1.20;;;;;;;13.66;100.00;101865.13;5055423;28;20430;-67
2023/09/30 05:53:18;;;;;;;2.80;0.97;;;;;;;13.70;100.00;101860.72;5055103;28;20474;-67
2023/09/30 05:55:45;;;;;;;2.67;0.87;;;;;;;13.74;100.00;101867.22;5054361;28;20530;-69
2023/09/30 05:58:15;;;;;;;3.43;0.90;;;;;;;13.78;100.00;101868.25;5055624;28;20442;-68
2023/09/30 06:00:42;;;;;;;3.80;0.87;;;;;;;13.77;100.00;101869.34;5055991;28;20431;-68
2023/09/30 06:03:10;;;;;;;5.70;1.17;;;;;;;13.87;100.00;101862.97;5055222;28;20442;-68
2023/09/30 06:05:40;;;;;;;3.33;1.07;;;;;;;13.92;100.00;101862.91;5069208;22;20540;-70
2023/09/30 06:08:10;;;;;;;2.93;0.77;;;;;;;13.98;100.00;101874.53;5054674;28;20445;-70
2023/09/30 06:10:37;;;;;;;6.37;1.70;;;;;;;14.02;100.00;101867.41;5054789;28;20982;-70
2023/09/30 06:13:05;;;;;;;4.63;0.83;;;;;;;14.06;100.00;101879.34;5055182;28;20517;-70
2023/09/30 06:15:33;;;;;;;2.53;0.80;;;;;;;14.02;100.00;101875.56;5054830;28;20533;-71
2023/09/30 06:18:00;;;;;;;3.13;1.10;;;;;;;14.06;100.00;101884.78;5054860;28;20830;-72
2023/09/30 06:20:30;;;;;;;3.40;1.03;;;;;;;14.08;100.00;101879.88;5054426;28;20611;-72
2023/09/30 06:22:57;;;;;;;2.40;0.90;;;;;;;14.14;100.00;101887.69;5055027;28;20450;-72
2023/09/30 06:25:24;;;;;;;3.73;1.00;;;;;;;14.19;100.00;101883.25;5054424;28;20914;-72
2023/09/30 06:27:51;;;;;;;2.87;0.80;;;;;;;14.18;100.00;101892.53;5054257;28;20486;-72
2023/09/30 06:30:19;;;;;;;3.13;0.87;;;;;;;14.13;100.00;101893.44;5054538;28;20438;-73
2023/09/30 06:32:47;;;;;;;2.93;0.87;;;;;;;14.12;100.00;101891.78;5054442;28;20540;-73
2023/09/30 06:35:14;;;;;;;3.00;0.80;;;;;;;14.12;100.00;101897.22;5054927;28;20532;-73
2023/09/30 06:37:42;;;;;;;2.90;0.67;;;;;;;14.15;100.00;101913.00;5054275;28;20458;-73
2023/09/30 06:40:11;;;;;;;3.33;1.13;;;;;;;14.12;100.00;101902.69;5054391;28;20526;-73
2023/09/30 06:42:39;;;;;;;4.27;1.03;;;;;;;14.19;100.00;101897.69;5054588;28;20446;-73
2023/09/30 06:45:07;;;;;;;3.00;1.00;;;;;;;14.25;100.00;101899.22;5054312;28;20470;-74
2023/09/30 06:47:34;;;;;;;5.53;1.47;;;;;;;14.27;100.00;101899.78;5054385;28;20537;-75
2023/09/30 06:50:07;;;;;;;3.10;1.07;;;;;;;14.31;100.00;101911.72;5054506;28;20446;-73
2023/09/30 06:52:35;;;;;;;3.67;0.97;;;;;;;14.31;100.00;101917.16;5054371;28;20467;-74
2023/09/30 06:55:01;;;;;;;2.87;0.87;;;;;;;14.35;100.00;101918.19;5054488;28;20484;-74
2023/09/30 06:57:28;;;;;;;5.00;1.43;;;;;;;14.39;100.00;101915.69;5054353;28;20501;-73
2023/09/30 06:59:56;;;;;;;3.50;0.77;;;;;;;14.48;100.00;101916.69;5054198;28;20446;-73
2023/09/30 07:02:23;;;;;;;4.57;1.20;;;;;;;14.55;100.00;101921.75;5053522;28;20882;-74
2023/09/30 07:04:50;;;;;;;3.17;0.93;;;;;;;14.61;100.00;101920.59;5053746;28;20442;-73
2023/09/30 07:07:18;;;;;;;5.43;1.47;;;;;;;14.69;100.00;101938.19;5053677;28;20494;-73
2023/09/30 07:09:45;;;;;;;5.00;1.50;;;;;;;14.77;100.00;101941.06;5054042;28;20440;-73
2023/09/30 07:12:11;;;;;;;4.33;1.20;;;;;;;14.89;100.00;101938.72;5053952;28;20442;-73
2023/09/30 07:14:38;;;;;;;4.73;1.17;;;;;;;14.93;100.00;101941.66;5053401;28;20490;-73
2023/09/30 07:17:05;;;;;;;4.70;0.90;;;;;;;14.99;100.00;101945.09;5053684;28;20468;-73
2023/09/30 07:19:32;;;;;;;4.90;0.87;;;;;;;15.00;100.00;101952.19;5053404;28;20446;-73
2023/09/30 07:21:58;;;;;;;3.43;1.00;;;;;;;14.97;100.00;101950.06;5053704;28;20434;-73
2023/09/30 07:24:26;;;;;;;3.33;1.00;;;;;;;15.00;100.00;101955.72;5053649;28;20431;-71
2023/09/30 07:26:53;;;;;;;2.90;0.80;;;;;;;15.02;100.00;101958.16;5053473;28;20454;-73
2023/09/30 07:29:19;;;;;;;5.20;1.33;;;;;;;15.08;100.00;101963.22;5053475;28;20438;-72
2023/09/30 07:31:46;;;;;;;2.67;0.80;;;;;;;15.13;100.00;101967.78;5053845;28;20445;-74
2023/09/30 07:34:12;;;;;;;2.90;1.00;;;;;;;15.15;100.00;101968.31;5053227;28;20482;-73
2023/09/30 07:36:39;;;;;;;2.70;0.80;;;;;;;15.24;100.00;101972.00;5053507;28;20458;-71
2023/09/30 07:39:06;;;;;;;3.80;1.33;;;;;;;15.20;100.00;101967.44;5053470;28;20500;-71
2023/09/30 07:41:37;;;;;;;3.40;1.30;;;;;;;15.21;100.00;101971.78;5053469;28;21021;-72
2023/09/30 07:44:05;;;;;;;3.70;1.13;;;;;;;15.31;99.61;101982.50;5053900;28;20423;-73
2023/09/30 07:46:31;;;;;;;4.20;0.90;;;;;;;15.30;98.83;101973.53;5053111;28;20465;-72
2023/09/30 07:48:59;;;;;;;2.30;0.60;;;;;;;15.29;99.12;101976.56;5053695;28;20529;-73
2023/09/30 07:51:25;;;;;;;6.73;1.53;;;;;;;15.32;98.96;101990.44;5053188;28;20470;-74
2023/09/30 07:53:52;;;;;;;3.43;1.03;;;;;;;15.28;99.11;101992.13;5053291;28;20569;-72
2023/09/30 07:56:19;;;;;;;3.10;0.73;;;;;;;15.30;98.64;101981.72;5052897;28;20830;-72
2023/09/30 07:58:47;;;;;;;2.23;0.53;;;;;;;15.32;99.95;101995.88;5052937;28;20835;-71
2023/09/30 08:01:14;;;;;;;3.40;1.03;;;;;;;15.38;99.05;101994.69;5053211;28;20525;-72
2023/09/30 08:03:41;;;;;;;4.27;0.80;;;;;;;15.47;98.88;101992.09;5053036;28;20514;-71
2023/09/30 08:06:09;;;;;;;5.00;1.73;;;;;;;15.58;97.79;101992.69;5053121;28;20468;-72
2023/09/30 08:08:36;;;;;;;2.90;0.83;;;;;;;15.58;98.32;101998.16;5053073;28;20440;-71
2023/09/30 08:11:04;;;;;;;6.60;0.80;;;;;;;15.61;97.55;101998.38;5053194;28;20937;-71
2023/09/30 08:13:32;;;;;;;9.60;0.90;;;;;;;15.71;97.09;101991.94;5052742;28;21017;-72
2023/09/30 08:16:00;;;;;;;5.20;1.07;;;;;;;15.85;97.53;102000.19;5053403;28;20462;-72
2023/09/30 08:18:27;;;;;;;3.60;0.97;;;;;;;15.93;95.75;101998.66;5053116;28;20500;-72
2023/09/30 08:20:54;;;;;;;3.17;0.93;;;;;;;15.97;95.94;102005.16;5056835;28;20835;-72
2023/09/30 08:23:21;;;;;;;4.10;1.13;;;;;;;15.98;95.19;102012.22;5057354;28;20442;-72
2023/09/30 08:25:47;;;;;;;2.30;0.67;;;;;;;15.98;95.01;102007.59;5056889;28;20457;-71
2023/09/30 08:28:14;;;;;;;5.90;1.23;;;;;;;16.02;94.67;102002.31;5056942;28;20437;-72
2023/09/30 08:30:40;;;;;;;2.73;0.80;;;;;;;15.98;95.03;102013.06;5057186;28;20516;-71
2023/09/30 08:33:08;;;;;;;2.70;0.90;;;;;;;16.02;95.09;102011.31;5057308;28;20565;-73
2023/09/30 08:35:38;;;;;;;5.90;1.03;;;;;;;16.02;94.04;102010.50;5057240;28;20469;-72
2023/09/30 08:38:05;;;;;;;2.70;0.60;;;;;;;16.04;94.03;102009.09;5056742;28;20444;-72
2023/09/30 08:40:32;;;;;;;2.83;0.80;;;;;;;16.02;94.90;102003.13;5056561;28;20446;-72
2023/09/30 08:42:59;;;;;;;2.30;0.60;;;;;;;16.02;94.07;102010.50;5056528;28;20434;-71
2023/09/30 08:45:29;;;;;;;3.57;0.90;;;;;;;15.95;94.68;102001.91;5056175;28;20446;-71
2023/09/30 08:47:56;;;;;;;3.30;0.87;;;;;;;15.96;95.18;102006.25;5056753;28;20542;-70
2023/09/30 08:50:25;;;;;;;2.87;1.17;;;;;;;15.93;96.40;102004.13;5056582;28;21002;-70
2023/09/30 08:52:52;;;;;;;2.17;0.70;;;;;;;16.02;96.31;102010.50;5056338;28;20463;-70
2023/09/30 08:55:19;;;;;;;3.00;0.73;;;;;;;16.14;96.43;102016.28;5056235;28;20438;-70
2023/09/30 08:57:47;;;;;;;3.03;0.70;;;;;;;16.29;94.22;102012.44;5056214;28;20561;-70
2023/09/30 09:00:14;;;;;;;3.53;0.90;;;;;;;16.38;94.11;102011.44;5056259;28;20444;-72
2023/09/30 09:02:41;;;;;;;3.73;0.80;;;;;;;16.47;94.03;102013.44;5055935;28;20444;-72
2023/09/30 09:05:09;;;;;;;2.40;0.60;;;;;;;16.58;93.07;102009.38;5055862;28;20458;-72
2023/09/30 09:07:37;;;;;;;2.27;0.63;;;;;;;16.65;91.90;102007.06;5055996;28;20458;-72
2023/09/30 09:10:05;;;;;;;2.20;0.63;;;;;;;16.70;92.50;102006.94;5055886;28;20438;-72
2023/09/30 09:12:34;;;;;;;2.73;1.03;;;;;;;16.77;93.21;102007.34;5055884;28;20450;-72
2023/09/30 09:15:01;;;;;;;3.80;0.63;;;;;;;16.88;91.00;102002.47;5055722;28;20569;-73
2023/09/30 09:17:41;;;;;;;4.13;0.80;;;;;;;16.97;89.37;102005.28;5056012;28;20550;-72
2023/09/30 09:20:10;;;;;;;2.83;0.80;;;;;;;16.99;89.51;101997.53;5056254;28;20656;-72
2023/09/30 09:22:42;;;;;;;6.83;0.70;;;;;;;17.11;89.28;102001.34;5056070;28;20460;-73
2023/09/30 09:25:09;;;;;;;2.63;0.80;;;;;;;17.22;88.04;101996.47;5056100;28;20448;-73
2023/09/30 09:27:37;;;;;;;3.30;0.90;;;;;;;17.25;88.69;102005.97;5055851;28;20464;-73
2023/09/30 09:30:17;;;;;;;3.30;1.03;;;;;;;17.33;87.84;102016.97;5055412;28;20508;-72
2023/09/30 09:33:10;;;;;;;4.33;0.60;;;;;;;17.42;85.37;102014.31;5055951;28;20529;-74
2023/09/30 09:35:37;;;;;;;9.27;1.33;;;;;;;17.48;86.31;102009.50;5008855;28;20807;-74
2023/09/30 09:38:07;;;;;;;3.37;1.00;;;;;;;17.52;85.89;102013.22;5055902;28;20470;-73
2023/09/30 09:40:35;;;;;;;4.40;0.73;;;;;;;17.61;86.47;102012.16;5055966;28;20434;-73
2023/09/30 09:43:04;;;;;;;4.63;0.80;;;;;;;17.69;84.61;102023.50;5055340;28;20782;-74
2023/09/30 09:45:33;;;;;;;5.50;0.90;;;;;;;17.74;84.25;102013.22;5055187;28;20478;-73
2023/09/30 09:48:00;;;;;;;2.50;0.67;;;;;;;17.83;83.85;102007.78;5055258;28;20446;-74
2023/09/30 09:50:26;;;;;;;2.77;0.83;;;;;;;17.89;83.61;102017.53;5055193;28;20435;-74
2023/09/30 09:52:55;;;;;;;3.37;1.20;;;;;;;17.96;82.67;102025.28;5055546;28;20470;-74
2023/09/30 09:55:25;;;;;;;3.47;1.03;;;;;;;17.98;84.33;102020.31;5054602;28;20482;-74
2023/09/30 09:57:52;;;;;;;2.70;0.80;;;;;;;18.07;83.36;102021.13;5055013;28;20454;-74
2023/09/30 10:00:21;;;;;;;2.80;1.00;;;;;;;18.21;80.26;102019.09;5054855;28;20930;-74
2023/09/30 10:02:48;;;;;;;2.50;0.67;;;;;;;18.29;78.65;102014.78;5054784;28;20525;-74
2023/09/30 10:05:16;;;;;;;2.50;0.73;;;;;;;18.27;79.63;102009.56;5054932;28;20452;-74
2023/09/30 10:07:48;;;;;;;2.70;0.70;;;;;;;18.31;79.52;102016.06;5055148;28;20462;-74
2023/09/30 10:10:18;;;;;;;4.10;0.87;;;;;;;18.36;81.25;102017.84;5055429;28;20509;-74
2023/09/30 10:12:47;;;;;;;3.80;0.80;;;;;;;18.49;78.32;102016.91;5055196;28;20502;-74
2023/09/30 10:15:40;;;;;;;3.73;1.03;;;;;;;18.61;77.59;102024.53;5054863;28;20482;-74
2023/09/30 10:18:09;;;;;;;4.83;0.87;;;;;;;18.68;77.06;102011.13;5054572;28;20790;-74
2023/09/30 10:20:37;;;;;;;2.53;0.70;;;;;;;18.77;78.59;102020.22;5054701;28;20501;-74
2023/09/30 10:23:20;;;;;;;3.00;0.83;;;;;;;18.92;76.21;102020.88;5055039;28;20434;-74
2023/09/30 10:25:48;;;;;;;3.70;0.73;;;;;;;19.11;73.71;102026.84;5054597;28;20449;-75
2023/09/30 10:28:38;;;;;;;2.20;0.60;;;;;;;19.21;74.21;102031.19;5054992;28;20446;-71
2023/09/30 10:31:13;;;;;;;3.13;0.70;;;;;;;19.17;74.71;102025.56;5054323;28;20427;-73
2023/09/30 10:34:12;;;;;;;4.70;0.90;;;;;;;19.21;70.81;102034.75;5054440;28;20988;-71
2023/09/30 10:36:40;;;;;;;3.43;1.13;;;;;;;19.26;72.06;102022.81;5054414;28;20875;-75
2023/09/30 10:39:13;;;;;;;2.40;0.77;;;;;;;19.24;71.78;102017.63;5054032;28;20439;-72
2023/09/30 10:41:52;;;;;;;4.93;0.80;;;;;;;19.44;70.25;102029.91;5053719;28;20434;-73
2023/09/30 10:44:45;;;;;;;3.23;1.10;;;;;;;19.62;72.03;102038.97;5054179;28;20442;-72
2023/09/30 10:47:36;;;;;;;2.53;0.83;;;;;;;19.78;71.05;102022.72;5034843;28;20476;-73
2023/09/30 10:50:04;;;;;;;4.33;1.10;;;;;;;19.84;69.18;102029.69;5049768;28;20559;-73
2023/09/30 10:52:31;;;;;;;3.00;1.03;;;;;;;19.94;68.52;102037.56;5054072;28;20573;-74
2023/09/30 10:55:04;;;;;;;2.90;0.70;;;;;;;20.04;67.77;102034.44;5053974;28;21028;-74
2023/09/30 10:57:31;;;;;;;2.27;0.50;;;;;;;20.09;66.85;102031.50;5053912;28;20458;-74
2023/09/30 11:00:16;;;;;;;2.53;0.60;;;;;;;20.12;68.63;102019.84;5054248;28;20460;-73
2023/09/30 11:02:50;;;;;;;3.13;0.60;;;;;;;20.36;63.64;102026.69;5053928;28;20849;-74
2023/09/30 11:05:18;;;;;;;3.40;0.70;;;;;;;20.49;62.85;102020.16;5053580;28;20472;-74
2023/09/30 11:07:48;;;;;;;4.63;0.60;;;;;;;20.80;63.65;102025.28;5053417;28;20958;-73
2023/09/30 11:10:17;;;;;;;2.97;0.77;;;;;;;21.21;61.35;102023.69;5053690;28;20868;-74
2023/09/30 11:12:54;;;;;;;2.80;0.83;;;;;;;21.86;57.77;102026.75;5053386;28;20516;-73
2023/09/30 11:15:23;;;;;;;2.60;0.70;;;;;;;22.60;55.91;102022.06;5053343;28;20960;-74
2023/09/30 11:17:50;;;;;;;8.23;1.10;;;;;;;23.05;55.16;102021.84;5053732;28;20490;-74
2023/09/30 11:20:17;;;;;;;3.07;0.70;;;;;;;23.43;52.99;102028.84;5053932;28;20442;-74
2023/09/30 11:22:45;;;;;;;4.07;1.00;;;;;;;23.79;51.93;102027.84;5054219;28;20454;-74
2023/09/30 11:25:17;;;;;;;3.70;0.70;;;;;;;23.94;50.16;102022.69;5053595;28;20910;-73
2023/09/30 11:27:44;;;;;;;5.13;0.97;;;;;;;24.29;51.93;102029.09;5053559;28;20461;-73